LRCL/CLJ METAR and TAF weather

Enter ICAO airport designator
Station Type Date Time Source
LRCL METAR 2022/06/27 07:30 UTC NOAA

LRCL 270730Z 05004KT 030V090 CAVOK 22/16 Q1020


Station Type Date Time Source
LRCL Decoded METAR 2022/06/27 07:30 UTC NOAA

Cluj-Napoca, Romania (LRCL) 46-47N 023-34E 413M
Jun 27, 2022 - 03:30 AM EDT / 2022.06.27 0730 UTC
Wind: from the NE (050 degrees) at 5 MPH (4 KT) (direction variable):0
Visibility: greater than 7 mile(s):0
Temperature: 71 F (22 C)
Dew Point: 60 F (16 C)
Relative Humidity: 68%
Pressure (altimeter): 30.12 in. Hg (1020 hPa)
ob: LRCL 270730Z 05004KT 030V090 CAVOK 22/16 Q1020
cycle: 7

Station Type Date Time Source
LRCL TAF 2007/05/23 16:57 UTC NOAA

TAF
AMD LRCL 231657Z 231607 VRB02MPS 9999 SCT030 BKN080
TEMPO 1719 VRB15G20MPS 1500 TSRAGR SCT010 BKN020CB OVC080

Example: see airport list